Time;durP1;ratioP1;P1;durP2;ratioP2;P2;SDS_P1;SDS_P2;PMS_P1;PMS_P2;Temp;Humidity;BMP_temperature;BMP_pressure;BME280_temperature;BME280_humidity;BME280_pressure;Samples;Min_cycle;Max_cycle;Signal;HPM_P1;HPM_P2
2023/05/31 00:02:07;;;;;;;7.97;6.65;;;;;;;14.20;70.11;102414.50;5074614;28;20040;-58
2023/05/31 00:04:33;;;;;;;9.15;6.85;;;;;;;14.20;70.11;102413.63;5074634;28;20090;-58
2023/05/31 00:06:58;;;;;;;8.30;6.88;;;;;;;14.31;69.89;102416.59;5073087;28;20438;-58
2023/05/31 00:09:24;;;;;;;7.53;6.82;;;;;;;14.18;70.13;102418.22;5086830;28;20024;-59
2023/05/31 00:11:51;;;;;;;10.30;6.78;;;;;;;14.17;70.14;102408.44;5079994;28;20028;-58
2023/05/31 00:14:17;;;;;;;8.88;7.20;;;;;;;14.14;70.50;102417.50;5074112;28;20107;-58
2023/05/31 00:16:42;;;;;;;7.82;7.13;;;;;;;14.02;71.00;102418.16;5072933;28;20108;-58
2023/05/31 00:19:07;;;;;;;8.85;7.32;;;;;;;13.96;70.85;102410.44;5074403;28;20418;-58
2023/05/31 00:21:33;;;;;;;7.95;7.22;;;;;;;13.98;71.16;102417.44;5074566;28;20024;-58
2023/05/31 00:23:58;;;;;;;8.73;7.30;;;;;;;14.11;70.81;102416.81;5074211;28;20032;-58
2023/05/31 00:26:24;;;;;;;8.27;7.53;;;;;;;13.85;71.54;102411.00;5082707;28;20068;-58
2023/05/31 00:28:52;;;;;;;8.35;7.55;;;;;;;14.03;71.29;102409.16;5073904;28;20017;-58
2023/05/31 00:31:17;;;;;;;10.45;7.20;;;;;;;13.95;71.57;102414.06;5072854;28;20520;-59
2023/05/31 00:33:44;;;;;;;11.57;7.72;;;;;;;13.80;72.05;102413.94;5074219;28;20035;-58
2023/05/31 00:36:11;;;;;;;8.18;7.38;;;;;;;14.01;71.57;102416.44;5074109;28;20094;-58
2023/05/31 00:38:37;;;;;;;9.30;7.60;;;;;;;13.80;72.10;102405.03;5073909;28;20059;-58
2023/05/31 00:41:02;;;;;;;7.90;7.20;;;;;;;13.92;71.88;102407.06;5073906;28;20522;-58
2023/05/31 00:43:28;;;;;;;8.20;7.40;;;;;;;13.72;72.82;102401.88;5087034;28;20511;-58
2023/05/31 00:45:53;;;;;;;7.65;7.00;;;;;;;13.86;72.25;102402.91;5093524;28;20024;-58
2023/05/31 00:48:19;;;;;;;8.10;7.40;;;;;;;13.83;72.26;102416.44;5083624;28;20484;-58
2023/05/31 00:50:44;;;;;;;8.82;7.30;;;;;;;13.83;72.36;102420.94;5073732;28;20585;-58
2023/05/31 00:53:10;;;;;;;13.18;7.60;;;;;;;13.94;72.29;102423.03;5073937;28;20035;-58
2023/05/31 00:55:35;;;;;;;8.27;7.47;;;;;;;13.93;72.05;102429.34;5071206;28;20079;-58
2023/05/31 00:58:02;;;;;;;8.50;7.80;;;;;;;13.95;72.31;102420.28;5072927;28;20036;-58
2023/05/31 01:00:28;;;;;;;8.50;7.70;;;;;;;13.88;72.34;102424.22;5085805;28;20020;-58
2023/05/31 01:02:54;;;;;;;8.32;7.57;;;;;;;13.75;72.82;102417.78;5093994;28;20027;-58
2023/05/31 01:05:19;;;;;;;7.80;7.10;;;;;;;13.80;72.78;102419.28;5092543;28;20027;-58
2023/05/31 01:07:45;;;;;;;9.82;7.47;;;;;;;13.62;73.68;102428.25;5083241;28;20020;-58
2023/05/31 01:10:13;;;;;;;8.35;7.55;;;;;;;13.53;74.04;102415.31;5073599;28;20027;-58
2023/05/31 01:12:51;;;;;;;9.20;8.20;;;;;;;13.51;74.29;102427.91;5073591;28;20020;-58
2023/05/31 01:15:20;;;;;;;9.32;7.93;;;;;;;13.54;74.61;102427.75;5071450;28;20086;-58
2023/05/31 01:18:10;;;;;;;8.70;7.50;;;;;;;13.56;74.14;102429.41;5074783;28;20036;-58
2023/05/31 01:20:38;;;;;;;8.80;7.90;;;;;;;13.47;74.66;102428.97;5072913;28;20422;-58
2023/05/31 01:23:25;;;;;;;8.13;7.50;;;;;;;13.52;74.75;102426.94;5072531;28;20119;-58
2023/05/31 01:25:53;;;;;;;8.18;7.38;;;;;;;13.53;74.98;102418.88;5082188;28;20029;-58
2023/05/31 01:28:21;;;;;;;10.88;8.25;;;;;;;13.51;74.78;102422.56;5071301;28;20050;-58
2023/05/31 01:30:49;;;;;;;8.80;7.97;;;;;;;13.20;76.16;102426.69;5072471;28;20372;-58
2023/05/31 01:33:17;;;;;;;9.13;8.10;;;;;;;13.39;75.86;102429.38;5074510;28;20024;-58
2023/05/31 01:35:42;;;;;;;8.93;8.13;;;;;;;13.16;76.76;102423.31;5093265;28;20020;-59
2023/05/31 01:38:08;;;;;;;9.60;8.02;;;;;;;13.09;76.87;102421.03;5073930;28;20503;-58
2023/05/31 01:40:35;;;;;;;8.88;7.82;;;;;;;13.29;76.77;102415.59;5072435;28;20395;-58
2023/05/31 01:43:02;;;;;;;8.63;7.85;;;;;;;13.31;76.47;102413.72;5071147;28;20044;-58
2023/05/31 01:45:29;;;;;;;10.88;8.63;;;;;;;13.25;76.67;102419.38;5070540;28;20024;-58
2023/05/31 01:48:04;;;;;;;8.63;7.80;;;;;;;13.11;77.12;102406.63;5072394;28;20079;-58
2023/05/31 01:50:31;;;;;;;8.82;7.82;;;;;;;13.22;77.07;102411.47;5077625;28;20526;-58
2023/05/31 01:52:56;;;;;;;11.32;8.27;;;;;;;13.28;76.53;102405.00;5091678;28;20503;-58
2023/05/31 01:55:22;;;;;;;11.25;8.52;;;;;;;13.07;77.50;102412.22;5092596;28;20044;-58
2023/05/31 01:57:47;;;;;;;9.23;8.18;;;;;;;12.99;78.09;102406.38;5073251;28;20074;-58
2023/05/31 02:00:14;;;;;;;10.05;8.93;;;;;;;12.94;78.57;102404.81;5071752;28;20078;-58
2023/05/31 02:02:43;;;;;;;9.63;8.70;;;;;;;13.05;78.31;102398.94;5072707;28;20115;-58
2023/05/31 02:05:13;;;;;;;9.53;8.40;;;;;;;13.14;78.20;102409.16;5073675;28;20044;-58
2023/05/31 02:07:39;;;;;;;;;;;;;;;13.29;76.42;102410.25;5078799;28;20314;-58
2023/05/31 02:10:05;;;;;;;9.65;8.63;;;;;;;13.12;77.81;102394.19;5092506;28;19915;-58
2023/05/31 02:12:33;;;;;;;10.25;9.05;;;;;;;13.11;78.16;102398.63;5092310;28;20077;-58
2023/05/31 02:15:01;;;;;;;9.80;8.90;;;;;;;13.06;78.62;102398.00;5092393;28;20028;-58
2023/05/31 02:17:26;;;;;;;10.05;9.10;;;;;;;13.15;78.20;102405.56;5074774;28;20126;-58
2023/05/31 02:19:55;;;;;;;10.07;9.05;;;;;;;12.96;78.95;102400.25;5072094;28;20013;-58
2023/05/31 02:22:21;;;;;;;11.07;9.03;;;;;;;12.95;79.13;102392.31;5071047;28;20364;-58
2023/05/31 02:24:47;;;;;;;9.85;8.82;;;;;;;12.95;79.14;102398.50;5079388;28;20274;-58
2023/05/31 02:27:14;;;;;;;11.30;9.68;;;;;;;13.06;79.24;102398.00;5076899;28;20020;-58
2023/05/31 02:29:42;;;;;;;11.63;9.32;;;;;;;12.99;79.50;102401.91;5069969;28;20353;-58
2023/05/31 02:32:07;;;;;;;10.57;9.38;;;;;;;12.94;79.49;102396.78;5070696;28;20162;-58
2023/05/31 02:34:33;;;;;;;9.45;8.55;;;;;;;12.82;79.74;102386.69;5071878;28;20052;-58
2023/05/31 02:37:00;;;;;;;10.55;9.05;;;;;;;12.82;79.89;102400.03;5071699;28;20024;-58
2023/05/31 02:39:25;;;;;;;10.00;9.20;;;;;;;12.70;80.10;102395.28;5069562;28;20199;-58
2023/05/31 02:41:50;;;;;;;9.75;8.80;;;;;;;12.81;80.36;102397.44;5068960;28;20112;-58
2023/05/31 02:44:16;;;;;;;9.95;8.60;;;;;;;12.69;80.68;102398.88;5064224;28;20142;-58
2023/05/31 02:46:41;;;;;;;10.02;8.95;;;;;;;12.57;81.01;102396.81;5060582;28;20051;-58
2023/05/31 02:49:07;;;;;;;10.02;8.75;;;;;;;12.67;80.62;102390.06;5067862;28;20064;-58
2023/05/31 02:51:32;;;;;;;10.32;8.93;;;;;;;12.68;80.66;102402.50;5059941;28;20028;-58
2023/05/31 02:53:58;;;;;;;10.15;8.77;;;;;;;12.79;80.32;102399.31;5051245;28;20472;-58
2023/05/31 02:56:24;;;;;;;9.98;8.95;;;;;;;12.61;81.10;102399.25;5062146;28;20503;-58
2023/05/31 02:58:50;;;;;;;10.85;9.70;;;;;;;12.75;80.96;102408.41;5058519;28;20033;-58
2023/05/31 03:01:16;;;;;;;11.95;10.27;;;;;;;12.50;81.56;102402.44;5066435;28;20472;-58
2023/05/31 03:03:44;;;;;;;13.60;9.23;;;;;;;12.60;81.21;102396.66;5102582;28;20055;-58
2023/05/31 03:06:11;;;;;;;11.45;9.60;;;;;;;12.51;81.14;102403.28;5070483;28;20035;-58
2023/05/31 03:08:37;;;;;;;10.57;9.52;;;;;;;12.59;81.22;102397.56;5051418;28;20029;-58
2023/05/31 03:11:02;;;;;;;10.55;9.52;;;;;;;12.55;81.77;102406.66;5060908;28;20039;-58
2023/05/31 03:13:27;;;;;;;10.77;9.73;;;;;;;12.76;80.86;102404.81;5056141;28;20036;-58
2023/05/31 03:15:54;;;;;;;10.95;9.85;;;;;;;12.57;81.53;102404.81;5051423;28;20021;-58
2023/05/31 03:18:19;;;;;;;12.05;10.45;;;;;;;12.47;81.95;102401.69;5059737;28;20052;-58
2023/05/31 03:20:45;;;;;;;14.68;10.25;;;;;;;12.32;82.57;102402.38;5068161;28;20492;-59
2023/05/31 03:23:10;;;;;;;11.63;10.43;;;;;;;12.45;82.28;102398.25;5062043;28;20107;-58
2023/05/31 03:25:36;;;;;;;10.82;9.73;;;;;;;12.55;81.90;102396.84;5074887;28;20115;-58
2023/05/31 03:28:03;;;;;;;11.98;10.70;;;;;;;12.35;82.55;102397.78;5064780;28;20024;-58
2023/05/31 03:30:28;;;;;;;12.23;10.90;;;;;;;12.31;83.15;102390.00;5067321;28;20147;-58
2023/05/31 03:32:53;;;;;;;11.45;10.23;;;;;;;12.45;82.50;102398.25;5073395;28;20457;-58
2023/05/31 03:35:19;;;;;;;11.23;10.18;;;;;;;12.47;82.54;102397.22;5072612;28;20033;-58
2023/05/31 03:37:44;;;;;;;11.90;10.48;;;;;;;12.49;82.38;102399.81;5106073;28;20086;-58
2023/05/31 03:40:10;;;;;;;14.18;10.48;;;;;;;12.49;82.51;102403.34;5074709;28;20103;-58
2023/05/31 03:42:35;;;;;;;11.93;10.55;;;;;;;12.34;82.56;102388.03;5105993;28;20025;-58
2023/05/31 03:45:02;;;;;;;12.65;11.32;;;;;;;12.41;83.12;102400.19;5073858;28;20107;-58
2023/05/31 03:47:27;;;;;;;11.98;10.70;;;;;;;12.49;82.42;102403.34;5073524;28;20040;-58
2023/05/31 03:49:52;;;;;;;12.23;10.57;;;;;;;12.56;81.90;102387.03;5074664;28;20024;-58
2023/05/31 03:52:18;;;;;;;13.10;11.73;;;;;;;12.39;82.50;102388.72;5073304;28;20494;-58
2023/05/31 03:54:44;;;;;;;11.75;10.63;;;;;;;12.42;82.86;102401.03;5063148;28;20055;-58
2023/05/31 03:57:09;;;;;;;14.05;11.98;;;;;;;12.32;83.41;102402.38;5075007;28;20085;-58
2023/05/31 03:59:35;;;;;;;14.10;11.13;;;;;;;12.31;83.44;102398.00;5073719;28;20029;-58
2023/05/31 04:02:01;;;;;;;12.32;11.13;;;;;;;12.36;83.19;102399.53;5074727;28;20078;-58
2023/05/31 04:04:29;;;;;;;13.05;10.93;;;;;;;12.33;83.29;102404.13;5074658;28;20021;-58
2023/05/31 04:06:54;;;;;;;13.38;11.02;;;;;;;12.33;83.52;102405.00;5083161;28;20032;-58
2023/05/31 04:09:20;;;;;;;13.05;11.68;;;;;;;12.38;83.39;102400.31;5088733;28;20043;-58
2023/05/31 04:11:46;;;;;;;12.90;11.13;;;;;;;12.44;83.28;102404.50;5073097;28;20070;-58
2023/05/31 04:14:11;;;;;;;11.80;10.60;;;;;;;12.41;83.20;102396.63;5074020;28;20027;-58
2023/05/31 04:16:37;;;;;;;13.18;11.88;;;;;;;12.34;83.56;102395.19;5074687;28;20036;-58
2023/05/31 04:19:02;;;;;;;13.20;11.80;;;;;;;12.26;84.05;102395.53;5073029;28;20510;-58
2023/05/31 04:21:28;;;;;;;13.63;12.23;;;;;;;12.38;84.00;102392.31;5074030;28;20020;-58
2023/05/31 04:23:56;;;;;;;13.02;11.68;;;;;;;12.42;83.90;102395.72;5076201;28;20023;-58
2023/05/31 04:26:21;;;;;;;13.70;12.40;;;;;;;12.41;83.98;102397.53;5074400;28;20661;-58
2023/05/31 04:28:51;;;;;;;13.38;11.27;;;;;;;12.52;83.85;102405.00;5074478;28;20095;-58
2023/05/31 04:31:19;;;;;;;16.10;13.02;;;;;;;12.43;84.47;102394.75;5073581;28;20036;-59
2023/05/31 04:33:45;;;;;;;14.02;12.73;;;;;;;12.41;84.45;102402.84;5072995;28;20044;-58
2023/05/31 04:36:10;;;;;;;15.05;13.57;;;;;;;12.46;84.39;102406.16;5073975;28;20074;-58
2023/05/31 04:38:36;;;;;;;19.20;14.02;;;;;;;12.58;84.22;102396.72;5073794;28;20027;-58
2023/05/31 04:41:03;;;;;;;17.17;13.18;;;;;;;12.45;84.62;102401.75;5077453;28;20016;-58
2023/05/31 04:43:28;;;;;;;16.05;14.40;;;;;;;12.52;84.41;102396.13;5072689;28;20032;-58
2023/05/31 04:45:55;;;;;;;16.60;13.65;;;;;;;12.56;84.72;102403.06;5073550;28;20077;-58
2023/05/31 04:48:20;;;;;;;15.70;14.10;;;;;;;12.66;84.52;102405.25;5074343;28;20525;-58
2023/05/31 04:50:46;;;;;;;18.77;14.48;;;;;;;12.57;84.72;102396.81;5072072;28;20020;-58
2023/05/31 04:53:14;;;;;;;16.45;13.55;;;;;;;12.68;84.39;102402.50;5073585;28;20387;-58
2023/05/31 04:55:39;;;;;;;16.70;14.90;;;;;;;12.60;84.51;102402.84;5073658;28;20063;-58
2023/05/31 04:58:05;;;;;;;16.42;14.75;;;;;;;12.78;84.33;102394.94;5083752;28;20027;-58
2023/05/31 05:00:32;;;;;;;16.48;14.70;;;;;;;12.83;83.88;102392.91;5088261;28;20024;-58
2023/05/31 05:02:58;;;;;;;17.48;15.43;;;;;;;12.75;84.37;102403.09;5073658;28;20021;-58
2023/05/31 05:05:25;;;;;;;17.50;15.63;;;;;;;12.85;84.34;102391.91;5072059;28;20441;-58
2023/05/31 05:07:51;;;;;;;17.65;15.82;;;;;;;12.77;84.35;102394.06;5073242;28;20024;-58
2023/05/31 05:10:16;;;;;;;17.73;15.82;;;;;;;12.90;84.01;102397.00;5071791;28;20017;-58
2023/05/31 05:12:41;;;;;;;19.38;15.65;;;;;;;12.99;83.51;102395.69;5073728;28;20024;-58
2023/05/31 05:15:10;;;;;;;17.75;15.95;;;;;;;13.08;83.50;102396.09;5081569;28;20068;-58
2023/05/31 05:17:36;;;;;;;18.23;16.08;;;;;;;13.08;83.34;102403.25;5093839;28;20048;-58
2023/05/31 05:20:05;;;;;;;17.33;15.48;;;;;;;13.01;83.60;102402.69;5090527;28;20028;-58
2023/05/31 05:22:30;;;;;;;21.17;16.23;;;;;;;13.02;83.29;102407.09;5072073;28;20028;-58
2023/05/31 05:24:56;;;;;;;18.40;16.48;;;;;;;13.02;83.56;102400.88;5061907;28;20471;-58
2023/05/31 05:27:21;;;;;;;21.35;16.67;;;;;;;13.16;83.62;102414.44;5090551;28;20468;-58
2023/05/31 05:29:47;;;;;;;20.05;17.48;;;;;;;13.18;82.95;102409.91;5069424;28;20071;-58
2023/05/31 05:32:13;;;;;;;21.15;17.83;;;;;;;13.20;82.71;102408.00;5117458;27;20558;-59
2023/05/31 05:34:41;;;;;;;25.42;18.55;;;;;;;13.26;82.61;102406.88;5092984;28;20517;-58
2023/05/31 05:37:06;;;;;;;19.50;17.15;;;;;;;13.42;82.46;102417.69;5071702;28;20361;-58
2023/05/31 05:39:31;;;;;;;22.98;17.70;;;;;;;13.29;82.23;102382.66;5070696;28;20032;-58
2023/05/31 05:41:57;;;;;;;20.98;17.55;;;;;;;13.54;82.02;102409.03;5070205;28;20464;-58
2023/05/31 05:44:23;;;;;;;19.73;17.73;;;;;;;13.61;81.10;102405.97;5072304;28;20024;-58
2023/05/31 05:46:48;;;;;;;21.75;17.30;;;;;;;13.64;80.88;102399.59;5072960;28;20427;-58
2023/05/31 05:49:13;;;;;;;19.73;17.35;;;;;;;13.82;80.40;102412.03;5079239;28;20025;-58
2023/05/31 05:51:39;;;;;;;19.25;17.23;;;;;;;13.91;80.90;102410.66;5072901;28;20444;-58
2023/05/31 05:54:05;;;;;;;20.63;17.83;;;;;;;13.96;80.70;102402.41;5071163;28;20027;-58
2023/05/31 05:56:31;;;;;;;21.52;17.98;;;;;;;14.04;79.47;102413.59;5072470;28;20067;-58
2023/05/31 05:58:56;;;;;;;21.02;18.05;;;;;;;14.08;79.57;102416.00;5072099;28;20028;-58
2023/05/31 06:01:23;;;;;;;20.80;18.02;;;;;;;14.05;79.10;102407.28;5072129;28;20033;-58
2023/05/31 06:03:49;;;;;;;19.42;17.48;;;;;;;14.21;78.51;102404.69;5070773;28;20035;-58
2023/05/31 06:06:16;;;;;;;20.17;17.08;;;;;;;14.27;78.92;102415.91;5083734;28;20024;-58
2023/05/31 06:08:45;;;;;;;24.70;16.92;;;;;;;14.40;78.20;102415.25;5092852;28;20453;-58
2023/05/31 06:11:11;;;;;;;20.02;17.85;;;;;;;14.40;77.98;102416.09;5079026;28;20020;-59
2023/05/31 06:13:37;;;;;;;19.35;17.25;;;;;;;14.53;77.06;102414.53;5067135;28;20107;-58
2023/05/31 06:16:05;;;;;;;19.35;17.27;;;;;;;14.58;77.21;102418.78;5101955;28;20123;-58
2023/05/31 06:18:31;;;;;;;19.07;17.17;;;;;;;14.71;76.70;102414.47;5069845;28;20024;-58
2023/05/31 06:20:57;;;;;;;18.83;16.83;;;;;;;14.61;76.42;102405.22;5071717;28;20019;-58
2023/05/31 06:23:25;;;;;;;20.85;17.35;;;;;;;14.77;76.30;102427.53;5075950;28;20107;-58
2023/05/31 06:25:52;;;;;;;22.98;18.08;;;;;;;14.90;76.49;102425.03;5071935;28;20034;-58
2023/05/31 06:28:21;;;;;;;20.23;17.13;;;;;;;14.98;75.60;102418.28;5072143;28;20027;-58
2023/05/31 06:30:46;;;;;;;20.83;16.87;;;;;;;15.10;75.12;102422.09;5070285;28;20447;-58
2023/05/31 06:33:12;;;;;;;19.85;17.75;;;;;;;15.18;75.28;102422.50;5104116;28;20028;-58
2023/05/31 06:35:39;;;;;;;24.33;17.65;;;;;;;15.19;75.15;102423.38;5072029;28;20435;-58
2023/05/31 06:38:05;;;;;;;19.13;17.08;;;;;;;15.24;74.94;102423.97;5070524;28;20079;-58
2023/05/31 06:40:30;;;;;;;20.63;17.20;;;;;;;15.49;74.26;102427.91;5071803;28;20024;-58
2023/05/31 06:42:55;;;;;;;20.17;17.27;;;;;;;15.62;73.36;102428.94;5071704;28;20058;-58
2023/05/31 06:45:21;;;;;;;24.75;17.00;;;;;;;15.61;73.15;102419.13;5071241;28;20025;-58
2023/05/31 06:47:46;;;;;;;22.25;16.90;;;;;;;15.62;72.74;102424.44;5071883;28;20016;-58
2023/05/31 06:50:14;;;;;;;24.20;16.77;;;;;;;15.67;72.80;102432.19;5070516;28;20052;-58
2023/05/31 06:52:40;;;;;;;20.67;16.85;;;;;;;15.81;72.36;102429.59;5064742;28;20468;-59
2023/05/31 06:55:06;;;;;;;25.42;16.98;;;;;;;15.91;72.20;102427.19;5069914;28;20058;-58
2023/05/31 06:57:31;;;;;;;24.15;16.70;;;;;;;16.08;71.96;102432.41;5085342;28;20112;-58
2023/05/31 06:59:57;;;;;;;24.85;17.38;;;;;;;16.22;70.68;102434.25;5077749;28;20104;-59
2023/05/31 07:02:22;;;;;;;20.83;15.88;;;;;;;16.26;69.93;102433.09;5071017;28;20445;-59
2023/05/31 07:04:47;;;;;;;22.13;16.77;;;;;;;16.28;70.36;102430.34;5071471;28;20032;-59
2023/05/31 07:07:13;;;;;;;24.05;16.92;;;;;;;16.40;70.00;102429.56;5071648;28;20104;-58
2023/05/31 07:09:38;;;;;;;20.50;17.40;;;;;;;16.47;70.12;102427.34;5071425;28;20033;-58
2023/05/31 07:12:04;;;;;;;18.73;15.38;;;;;;;16.56;69.26;102427.66;5070495;28;20028;-59
2023/05/31 07:14:30;;;;;;;19.02;16.05;;;;;;;16.71;68.68;102422.28;5079263;28;20494;-59
2023/05/31 07:16:55;;;;;;;19.13;16.92;;;;;;;16.76;68.38;102422.84;5062021;28;20526;-59
2023/05/31 07:19:20;;;;;;;19.45;17.02;;;;;;;16.85;67.93;102413.34;5071240;28;20460;-59
2023/05/31 07:21:46;;;;;;;20.33;16.30;;;;;;;16.84;66.71;102420.56;5063038;28;20149;-59
2023/05/31 07:24:11;;;;;;;19.67;15.23;;;;;;;16.89;66.67;102414.91;5070682;28;20031;-59
2023/05/31 07:26:36;;;;;;;20.23;15.98;;;;;;;17.05;66.20;102412.91;5101129;28;20511;-58
2023/05/31 07:29:02;;;;;;;24.10;16.58;;;;;;;17.12;66.48;102419.63;5063370;28;20055;-59
2023/05/31 07:31:27;;;;;;;18.88;15.75;;;;;;;17.15;65.97;102408.69;5069553;28;20012;-59
2023/05/31 07:33:53;;;;;;;21.90;16.05;;;;;;;17.22;67.16;102411.81;5054568;28;20023;-59
2023/05/31 07:36:19;;;;;;;22.80;15.18;;;;;;;17.29;66.05;102410.44;5070752;28;20036;-59
2023/05/31 07:38:44;;;;;;;24.15;16.75;;;;;;;17.47;64.75;102414.59;5070104;28;20099;-58
2023/05/31 07:41:10;;;;;;;21.48;14.80;;;;;;;17.61;64.62;102410.97;5067705;28;20464;-59
2023/05/31 07:43:36;;;;;;;19.83;15.82;;;;;;;17.64;64.29;102410.75;5064744;28;20032;-59
2023/05/31 07:46:02;;;;;;;22.95;16.02;;;;;;;17.76;63.60;102405.50;5064742;28;20368;-59
2023/05/31 07:48:28;;;;;;;19.13;14.70;;;;;;;17.86;63.03;102417.41;5101836;28;20059;-59
2023/05/31 07:50:56;;;;;;;23.05;14.43;;;;;;;17.92;62.58;102392.75;5059382;28;20127;-59
2023/05/31 07:53:21;;;;;;;25.27;15.30;;;;;;;18.04;62.56;102410.75;5064466;28;20032;-59
2023/05/31 07:55:47;;;;;;;19.80;15.30;;;;;;;18.10;62.97;102407.63;5070400;28;20056;-58
2023/05/31 07:58:13;;;;;;;18.98;15.57;;;;;;;18.21;61.83;102408.72;5054080;28;20024;-59
2023/05/31 08:00:38;;;;;;;21.77;14.80;;;;;;;18.12;61.68;102410.22;5069329;28;20040;-58
2023/05/31 08:03:05;;;;;;;22.30;14.68;;;;;;;18.32;62.18;102400.72;5100998;28;20012;-59
2023/05/31 08:05:31;;;;;;;16.15;13.68;;;;;;;18.42;61.64;102406.31;5084172;28;20110;-59
2023/05/31 08:07:56;;;;;;;18.38;14.45;;;;;;;18.59;61.74;102398.75;5074174;28;20028;-58
2023/05/31 08:10:24;;;;;;;20.38;15.10;;;;;;;18.68;60.87;102397.22;5072842;28;20013;-59
2023/05/31 08:12:49;;;;;;;21.67;15.32;;;;;;;18.70;60.79;102399.78;5072424;28;20115;-58
2023/05/31 08:15:15;;;;;;;16.67;14.63;;;;;;;18.86;59.96;102389.66;5073176;28;20044;-59
2023/05/31 08:17:41;;;;;;;18.63;14.05;;;;;;;19.05;59.32;102400.78;5106825;28;20020;-59
2023/05/31 08:20:07;;;;;;;20.60;14.52;;;;;;;19.18;59.39;102400.75;5104173;28;20079;-59
2023/05/31 08:22:33;;;;;;;28.48;15.27;;;;;;;19.21;60.21;102391.56;5071919;28;20487;-59
2023/05/31 08:24:58;;;;;;;20.75;14.50;;;;;;;19.33;59.32;102387.94;5106166;28;20020;-59
2023/05/31 08:27:24;;;;;;;19.83;14.75;;;;;;;19.45;58.98;102399.63;5106265;28;20411;-59
2023/05/31 08:29:50;;;;;;;19.13;14.10;;;;;;;19.54;57.80;102380.03;5068184;28;20387;-59
2023/05/31 08:32:16;;;;;;;24.88;15.25;;;;;;;19.65;56.73;102396.31;5068676;28;20028;-58
2023/05/31 08:34:45;;;;;;;23.35;13.43;;;;;;;19.78;56.64;102387.25;5065458;28;20217;-58
2023/05/31 08:37:13;;;;;;;17.48;13.77;;;;;;;19.87;56.12;102387.41;5070952;28;20059;-59
2023/05/31 08:39:38;;;;;;;15.85;13.02;;;;;;;19.93;55.52;102386.06;5071446;28;20033;-60
2023/05/31 08:42:09;;;;;;;21.17;12.82;;;;;;;20.22;55.57;102393.72;5071036;28;20012;-59
2023/05/31 08:44:35;;;;;;;23.20;14.05;;;;;;;20.22;55.63;102382.91;5105475;28;20107;-59
2023/05/31 08:47:25;;;;;;;19.05;12.93;;;;;;;20.50;54.87;102387.81;5072985;28;20375;-59
2023/05/31 08:49:52;;;;;;;15.23;13.35;;;;;;;20.48;55.06;102378.97;5071423;28;20379;-59
2023/05/31 08:52:18;;;;;;;19.08;13.05;;;;;;;20.71;54.90;102384.41;5105772;27;20028;-59
2023/05/31 08:54:45;;;;;;;21.20;12.77;;;;;;;20.78;53.02;102383.75;5072886;28;20030;-58
2023/05/31 08:57:12;;;;;;;20.52;13.35;;;;;;;20.75;53.24;102385.84;5067183;28;20036;-59
2023/05/31 08:59:38;;;;;;;17.33;12.48;;;;;;;20.89;51.89;102380.19;5067544;28;20063;-59
2023/05/31 09:02:04;;;;;;;18.23;12.73;;;;;;;21.14;50.93;102373.56;5097924;28;20032;-59
2023/05/31 09:04:30;;;;;;;22.50;11.30;;;;;;;21.29;51.48;102372.28;5073537;28;20067;-59
2023/05/31 09:06:55;;;;;;;15.57;12.00;;;;;;;21.17;51.09;102365.19;5065757;28;20105;-59
2023/05/31 09:09:21;;;;;;;20.98;12.10;;;;;;;21.53;50.93;102365.78;5053200;28;20025;-59
2023/05/31 09:11:49;;;;;;;17.75;11.15;;;;;;;21.67;51.21;102373.59;5065599;28;20396;-59
2023/05/31 09:14:14;;;;;;;16.50;11.55;;;;;;;21.75;48.78;102371.09;5071900;28;20120;-59
2023/05/31 09:16:40;;;;;;;15.10;11.02;;;;;;;21.85;48.80;102371.16;5070108;28;20115;-59
2023/05/31 09:19:09;;;;;;;15.60;11.20;;;;;;;21.97;48.58;102371.94;5069679;28;20032;-59
2023/05/31 09:21:39;;;;;;;17.52;11.13;;;;;;;21.99;49.13;102367.25;5062092;28;20032;-59
2023/05/31 09:24:05;;;;;;;16.48;10.77;;;;;;;22.14;48.58;102357.75;5091233;28;20518;-59
2023/05/31 09:26:32;;;;;;;22.23;11.68;;;;;;;22.22;47.43;102368.81;5073016;28;20017;-59
2023/05/31 09:28:58;;;;;;;16.77;10.27;;;;;;;22.46;47.94;102359.50;5071362;28;20029;-59
2023/05/31 09:31:24;;;;;;;22.33;10.25;;;;;;;22.47;47.25;102350.34;5059937;28;20029;-59
2023/05/31 09:33:54;;;;;;;18.20;10.00;;;;;;;22.77;46.22;102351.31;5053049;28;20024;-59
2023/05/31 09:36:27;;;;;;;17.55;9.38;;;;;;;22.76;46.81;102350.44;5052956;28;20021;-59
2023/05/31 09:39:08;;;;;;;16.17;10.15;;;;;;;22.79;45.75;102347.44;5052972;28;20426;-59
2023/05/31 09:41:34;;;;;;;16.23;10.55;;;;;;;22.85;45.46;102346.03;5086089;28;20029;-59
2023/05/31 09:44:01;;;;;;;17.60;10.48;;;;;;;23.01;45.71;102340.09;5068002;28;20035;-59
2023/05/31 09:46:27;;;;;;;18.15;9.68;;;;;;;23.12;46.07;102337.25;5072932;28;20040;-59
2023/05/31 09:49:09;;;;;;;14.25;8.82;;;;;;;23.24;44.34;102335.25;5071659;28;20028;-59
2023/05/31 09:51:35;;;;;;;15.25;8.82;;;;;;;23.30;43.44;102318.38;5069788;28;20043;-59
2023/05/31 09:54:06;;;;;;;18.90;8.85;;;;;;;23.33;45.38;102335.22;5072633;28;20021;-59
2023/05/31 09:56:36;;;;;;;13.40;9.43;;;;;;;23.44;44.57;102330.63;5071211;28;20787;-59
2023/05/31 09:59:03;;;;;;;12.90;8.50;;;;;;;23.61;43.67;102337.19;5072005;28;20029;-59
2023/05/31 10:01:30;;;;;;;16.50;9.30;;;;;;;23.50;44.42;102324.63;5071326;28;20032;-59
2023/05/31 10:03:55;;;;;;;19.75;9.57;;;;;;;23.74;43.01;102329.63;5055930;28;20063;-59
2023/05/31 10:06:21;;;;;;;18.25;8.52;;;;;;;23.95;42.61;102329.41;5052416;28;20426;-59
2023/05/31 10:08:47;;;;;;;17.38;8.38;;;;;;;24.17;41.34;102320.88;5067945;28;20384;-59
2023/05/31 10:11:21;;;;;;;13.38;7.88;;;;;;;24.17;42.30;102318.16;5072181;28;20039;-59
2023/05/31 10:13:49;;;;;;;9.43;7.10;;;;;;;24.28;41.69;102325.28;5051986;28;20025;-59
2023/05/31 10:16:19;;;;;;;14.23;8.20;;;;;;;24.49;41.23;102325.03;5052227;28;20033;-59
2023/05/31 10:18:46;;;;;;;11.15;6.93;;;;;;;24.40;40.25;102329.50;5050915;28;20116;-59
2023/05/31 10:21:24;;;;;;;14.50;7.25;;;;;;;24.32;40.05;102321.22;5053306;28;20480;-59
2023/05/31 10:23:56;;;;;;;11.82;7.05;;;;;;;24.22;40.76;102318.56;5056995;28;20028;-59
2023/05/31 10:26:26;;;;;;;10.70;6.03;;;;;;;24.28;40.58;102308.94;5071598;28;20050;-59
2023/05/31 10:29:06;;;;;;;18.17;5.97;;;;;;;24.68;40.58;102299.59;5071186;28;20027;-59
2023/05/31 10:31:40;;;;;;;12.75;6.88;;;;;;;24.46;40.24;102311.75;5052005;28;20111;-59
2023/05/31 10:34:20;;;;;;;12.68;6.90;;;;;;;24.63;40.52;102293.75;5051734;28;20035;-59
2023/05/31 10:36:46;;;;;;;18.27;6.95;;;;;;;24.72;41.08;102294.69;5051866;28;20028;-59
2023/05/31 10:39:33;;;;;;;17.35;6.85;;;;;;;24.87;40.19;102287.69;5052843;28;20031;-59
2023/05/31 10:42:11;;;;;;;16.40;5.40;;;;;;;24.82;36.90;102290.88;5070381;28;20098;-59
2023/05/31 10:44:46;;;;;;;12.82;6.10;;;;;;;24.81;37.38;102282.88;5070144;28;20025;-59
2023/05/31 10:47:15;;;;;;;13.23;5.40;;;;;;;24.70;37.89;102276.63;5070598;28;20069;-59
2023/05/31 10:49:43;;;;;;;10.43;4.97;;;;;;;24.75;37.84;102275.34;5070422;28;20345;-59
2023/05/31 10:52:09;;;;;;;12.30;4.18;;;;;;;24.97;36.92;102260.38;5072139;28;20035;-59
2023/05/31 10:54:35;;;;;;;8.95;5.10;;;;;;;24.96;37.07;102266.84;5071544;28;20048;-59
2023/05/31 10:57:05;;;;;;;8.65;4.43;;;;;;;25.15;37.26;102270.28;5071608;28;20108;-59
2023/05/31 10:59:40;;;;;;;7.60;4.00;;;;;;;25.29;37.71;102273.44;5067868;28;20411;-59
2023/05/31 11:02:06;;;;;;;15.27;5.50;;;;;;;25.14;37.19;102260.38;5070508;28;20048;-59
2023/05/31 11:04:32;;;;;;;8.35;4.38;;;;;;;25.47;37.18;102268.81;5071571;28;20346;-59
2023/05/31 11:07:17;;;;;;;9.57;4.88;;;;;;;25.50;35.98;102260.31;5070378;28;20384;-59
2023/05/31 11:09:59;;;;;;;11.48;5.10;;;;;;;25.67;36.65;102264.00;5069886;28;20023;-59
2023/05/31 11:12:32;;;;;;;14.30;5.68;;;;;;;25.67;37.01;102257.69;5066943;28;20340;-59
2023/05/31 11:15:03;;;;;;;18.60;5.00;;;;;;;25.49;35.23;102260.47;5050873;28;20040;-59